Portada
METAR-TAF:

METAR-TAF

Aeroports :

Newport, Vermont, Estats Units d'Amèrica

latitud: 44-53-20N, longitud: 072-13-45W, altitud: 283 m

Observació

L'informe es va fer fa 13 minuts, a les 19:56 UTC
Vent 9 kt del Oest/Nord-Oest amb ràfegues de 17 kt, variant entre Oest i Nord/Nord-Oest
Temperatura 23°C
Humitat 47%
Pressió 1006 hPa
Visibilitat: 16.1 km
Núvols disperses a una alçada de 6000 ft
Núvols disperses a una alçada de 11000 ft

METAR: KEFK 061956Z AUTO 30009G17KT 270V330 10SM SCT060 SCT110 23/11 A2970 RMK AO2 T02320107

Hora: 16:09 (20:09 UTC)


TAF: manca

Observacions i pronòstics meteorològics de més de 4000 aeroports (METAR i TAF).

Les estacions disponibles són els punts grocs i vermells al mapa.

Posi el ratolí al punt desitjat per veure el nom de l'estació.

Feu clic per veure les observacions i els pronòstics meteorològics.

Per canviar el mapa: feu clic els botons verds amb una creu de color negre per apropar; al botó verd amb un guió per allunyar la imatge; o en les fletxes verdes per a mapes adjacents.


METAR-TAF: